Guoyu51 — V7WM9 — position and weather

sailwx.info

Track history (hours):
 
Tides and Currents Weather Stations Pressure Air Temp Water Temp Dewpoint Dewpoint Depression Visibility Wind Speed Wind Dir Waves Ship Positions

Guoyu51

Last reported at 2017-Dec-13 22:37 UTC. Time now 2017-Dec-18 11:18 UTC.
Position N 36°57' E 003°03'.

Length 190 m; draft 6.8 m.

Type: Cargo ship. MMSI: 366037878.

Date/timePositionNaut miles runAvg speedWind from/ knotsBaromVisibWave heightAir tempDewpointWater temp
2017-Dec-13 22:37N 36°57' E 003°03'613.1
2017-Dec-13 22:09N 36°56' E 002°56'313.2
2017-Dec-13 21:56N 36°55' E 002°52'613.0
2017-Dec-13 21:31N 36°54' E 002°46'612.9
2017-Dec-13 21:00N 36°53' E 002°38'612.6
2017-Dec-13 20:30N 36°52' E 002°30'612.3
2017-Dec-13 20:00N 36°51' E 002°22'612.3
2017-Dec-13 19:31N 36°50' E 002°15'612.3
2017-Dec-13 19:01N 36°48' E 002°07'612.0
2017-Dec-13 18:31N 36°47' E 001°60'611.9
2017-Dec-13 18:00N 36°46' E 001°52'612.0
2017-Dec-13 17:31N 36°46' E 001°45'611.9
2017-Dec-13 17:01N 36°44' E 001°38'612.4
2017-Dec-13 16:30N 36°43' E 001°30'612.8
2017-Dec-13 16:00N 36°42' E 001°22'612.9
2017-Dec-13 15:31N 36°41' E 001°14'713.1
2017-Dec-13 15:00N 36°40' E 001°06'713.4
2017-Dec-13 14:31N 36°39' E 000°58'713.2
2017-Dec-13 14:00N 36°38' E 000°50'612.9
2017-Dec-13 13:30N 36°36' E 000°42'612.5
2017-Dec-13 13:01N 36°35' E 000°35'612.4
2017-Dec-13 12:30N 36°34' E 000°27'612.2
2017-Dec-13 12:01N 36°33' E 000°20'612.2
2017-Dec-13 11:31N 36°32' E 000°12'612.0
2017-Dec-13 11:00N 36°31' E 000°05'611.9
2017-Dec-13 10:31N 36°30' W 000°03'611.8
2017-Dec-13 10:00N 36°29' W 000°10'611.7
2017-Dec-13 09:31N 36°28' W 000°17'611.5
2017-Dec-13 09:01N 36°27' W 000°24'611.5
2017-Dec-13 08:30N 36°26' W 000°31'293 9.8
2017-Dec-12 02:37N 35°29' W 006°26'111.0
2017-Dec-12 02:29N 35°28' W 006°28'46310.5
2017-Dec-10 06:28N 29°34' W 012°21'4210.6
2017-Dec-10 02:29N 28°59' W 012°48'810.4
2017-Dec-10 01:44N 28°53' W 012°53'310.3
2017-Dec-10 01:29N 28°50' W 012°55'910.1
2017-Dec-10 00:38N 28°43' W 013°00'110.1
2017-Dec-10 00:30N 28°42' W 013°01'510.2
2017-Dec-10 00:00N 28°38' W 013°04'2710.6
2017-Dec-09 21:29N 28°16' W 013°21'611.2
2017-Dec-09 20:59N 28°11' W 013°25'1511.2
2017-Dec-09 19:40N 27°59' W 013°34'2211.3
2017-Dec-09 17:42N 27°41' W 013°49'  
Track history (hours):
 
Tides and Currents Weather Stations Pressure Air Temp Water Temp Dewpoint Dewpoint Depression Visibility Wind Speed Wind Dir Waves Ship Positions

Guoyu51

Last reported at 2017-Dec-13 22:37 UTC. Time now 2017-Dec-18 11:18 UTC.
Position N 36°57' E 003°03'.

Length 190 m; draft 6.8 m.

Type: Cargo ship. MMSI: 366037878.

Date/timePositionNaut miles runAvg speedWind from/ knotsBaromVisibWave heightAir tempDewpointWater temp
2017-Dec-13 22:37N 36°57' E 003°03'613.1
2017-Dec-13 22:09N 36°56' E 002°56'313.2
2017-Dec-13 21:56N 36°55' E 002°52'613.0
2017-Dec-13 21:31N 36°54' E 002°46'612.9
2017-Dec-13 21:00N 36°53' E 002°38'612.6
2017-Dec-13 20:30N 36°52' E 002°30'612.3
2017-Dec-13 20:00N 36°51' E 002°22'612.3
2017-Dec-13 19:31N 36°50' E 002°15'612.3
2017-Dec-13 19:01N 36°48' E 002°07'612.0
2017-Dec-13 18:31N 36°47' E 001°60'611.9
2017-Dec-13 18:00N 36°46' E 001°52'612.0
2017-Dec-13 17:31N 36°46' E 001°45'611.9
2017-Dec-13 17:01N 36°44' E 001°38'612.4
2017-Dec-13 16:30N 36°43' E 001°30'612.8
2017-Dec-13 16:00N 36°42' E 001°22'612.9
2017-Dec-13 15:31N 36°41' E 001°14'713.1
2017-Dec-13 15:00N 36°40' E 001°06'713.4
2017-Dec-13 14:31N 36°39' E 000°58'713.2
2017-Dec-13 14:00N 36°38' E 000°50'612.9
2017-Dec-13 13:30N 36°36' E 000°42'612.5
2017-Dec-13 13:01N 36°35' E 000°35'612.4
2017-Dec-13 12:30N 36°34' E 000°27'612.2
2017-Dec-13 12:01N 36°33' E 000°20'612.2
2017-Dec-13 11:31N 36°32' E 000°12'612.0
2017-Dec-13 11:00N 36°31' E 000°05'611.9
2017-Dec-13 10:31N 36°30' W 000°03'611.8
2017-Dec-13 10:00N 36°29' W 000°10'611.7
2017-Dec-13 09:31N 36°28' W 000°17'611.5
2017-Dec-13 09:01N 36°27' W 000°24'611.5
2017-Dec-13 08:30N 36°26' W 000°31'293 9.8
2017-Dec-12 02:37N 35°29' W 006°26'111.0
2017-Dec-12 02:29N 35°28' W 006°28'46310.5
2017-Dec-10 06:28N 29°34' W 012°21'4210.6
2017-Dec-10 02:29N 28°59' W 012°48'810.4
2017-Dec-10 01:44N 28°53' W 012°53'310.3
2017-Dec-10 01:29N 28°50' W 012°55'910.1
2017-Dec-10 00:38N 28°43' W 013°00'110.1
2017-Dec-10 00:30N 28°42' W 013°01'510.2
2017-Dec-10 00:00N 28°38' W 013°04'2710.6
2017-Dec-09 21:29N 28°16' W 013°21'611.2
2017-Dec-09 20:59N 28°11' W 013°25'1511.2
2017-Dec-09 19:40N 27°59' W 013°34'2211.3
2017-Dec-09 17:42N 27°41' W 013°49'  

Dump ship's entire track history